| time (UTC) | temp F | wind direction | speed knots | gust knots | rain 1hr in | rain 24hr in | rain mn in | humidity % | barometer mb |
| 20260904213021 | 57 | 283 | 0.0 | 5.2 | 0.00 | 0.07 | 0.07 | 85 | 1020.2 |
| 20260904211524 | 57 | 283 | 0.0 | 6.1 | 0.00 | 0.07 | 0.07 | 85 | 1020.1 |
| 20260904210030 | 58 | 284 | 0.0 | 5.2 | 0.00 | 0.07 | 0.07 | 84 | 1020.0 |
| 20260904204519 | 58 | 284 | 0.9 | 3.5 | 0.00 | 0.07 | 0.07 | 84 | 1019.9 |
| 20260904203017 | 58 | 284 | 1.7 | 5.2 | 0.00 | 0.07 | 0.07 | 83 | 1019.8 |
| 20260904201523 | 58 | 275 | 0.0 | 5.2 | 0.00 | 0.07 | 0.07 | 82 | 1019.7 |
| 20260904200031 | 59 | 274 | 0.0 | 5.2 | 0.00 | 0.07 | 0.07 | 82 | 1019.5 |
| 20260904194533 | 59 | 265 | 2.6 | 8.7 | 0.00 | 0.07 | 0.07 | 81 | 1019.2 |
| 20260904193010 | 60 | 303 | 2.6 | 10.4 | 0.00 | 0.07 | 0.07 | 81 | 1019.1 |
| 20260904191519 | 60 | 296 | 3.5 | 10.4 | 0.00 | 0.07 | 0.07 | 81 | 1018.8 |
| 20260904190024 | 61 | 247 | 2.6 | 9.6 | 0.00 | 0.07 | 0.07 | 80 | 1018.8 |
| 20260904184531 | 61 | 298 | 1.7 | 13.9 | 0.00 | 0.07 | 0.07 | 79 | 1018.6 |
| 20260904183034 | 61 | 295 | 3.5 | 15.6 | 0.00 | 0.07 | 0.07 | 78 | 1018.5 |
| 20260904181515 | 62 | 281 | 4.3 | 8.7 | 0.00 | 0.07 | 0.07 | 78 | 1018.5 |
| 20260904180021 | 62 | 262 | 5.2 | 11.3 | 0.00 | 0.07 | 0.07 | 78 | 1018.3 |
| 20260904174529 | 62 | 285 | 3.5 | 10.4 | 0.00 | 0.07 | 0.07 | 78 | 1018.1 |
| 20260904173030 | 62 | 284 | 2.6 | 13.0 | 0.00 | 0.07 | 0.07 | 77 | 1018.1 |
| 20260904171542 | 62 | 309 | 5.2 | 13.0 | 0.00 | 0.07 | 0.07 | 77 | 1018.0 |
| 20260904170018 | 62 | 284 | 7.8 | 15.6 | 0.00 | 0.07 | 0.07 | 77 | 1017.9 |
| 20260904164526 | 62 | 267 | 7.0 | 16.5 | 0.00 | 0.07 | 0.07 | 77 | 1017.9 |
| 20260904163033 | 63 | 252 | 5.2 | 13.0 | 0.00 | 0.07 | 0.07 | 77 | 1017.7 |
| 20260904161532 | 63 | 284 | 6.1 | 11.3 | 0.00 | 0.07 | 0.07 | 76 | 1017.7 |
| 20260904160036 | 63 | 257 | 5.2 | 13.0 | 0.00 | 0.07 | 0.07 | 75 | 1017.8 |
| 20260904154520 | 63 | 259 | 6.1 | 19.1 | 0.00 | 0.07 | 0.07 | 75 | 1017.6 |
| 20260904153031 | 64 | 306 | 5.2 | 18.2 | 0.00 | 0.07 | 0.07 | 75 | 1017.5 |
| 20260904151531 | 64 | 303 | 7.0 | 16.5 | 0.00 | 0.07 | 0.07 | 75 | 1017.6 |
| 20260904150040 | 64 | 260 | 7.0 | 15.6 | 0.00 | 0.07 | 0.07 | 75 | 1017.5 |
| 20260904144534 | 64 | 225 | 7.8 | 13.9 | 0.00 | 0.07 | 0.07 | 74 | 1017.3 |
| 20260904143031 | 65 | 279 | 6.1 | 13.9 | 0.00 | 0.07 | 0.07 | 73 | 1017.3 |
| 20260904141504 | 65 | 273 | 7.8 | 15.6 | 0.00 | 0.07 | 0.07 | 73 | 1017.1 |
| 20260904140008 | 65 | 286 | 6.1 | 13.9 | 0.00 | 0.07 | 0.07 | 73 | 1016.9 |
| 20260904134511 | 65 | 285 | 5.2 | 10.4 | 0.00 | 0.07 | 0.07 | 74 | 1016.9 |
| 20260904133026 | 64 | 302 | 2.6 | 12.2 | 0.00 | 0.07 | 0.07 | 73 | 1016.8 |
| 20260904131523 | 64 | 302 | 6.1 | 15.6 | 0.00 | 0.07 | 0.07 | 71 | 1016.7 |
| 20260904130005 | 64 | 269 | 7.0 | 13.9 | 0.00 | 0.07 | 0.07 | 76 | 1016.6 |
| 20260904124508 | 64 | 306 | 7.8 | 13.9 | 0.00 | 0.07 | 0.07 | 75 | 1016.2 |
| 20260904123014 | 63 | 286 | 3.5 | 16.5 | 0.00 | 0.07 | 0.07 | 74 | 1016.4 |
| 20260904121523 | 64 | 309 | 7.0 | 20.0 | 0.00 | 0.07 | 0.07 | 72 | 1016.2 |
| 20260904120026 | 64 | 249 | 7.0 | 14.8 | 0.00 | 0.07 | 0.07 | 73 | 1015.9 |
| 20260904114506 | 64 | 253 | 2.6 | 15.6 | 0.00 | 0.07 | 0.07 | 76 | 1015.6 |
| 20260904113021 | 64 | 290 | 9.6 | 20.9 | 0.00 | 0.07 | 0.07 | 77 | 1015.5 |
| 20260904111520 | 64 | 283 | 4.3 | 15.6 | 0.00 | 0.07 | 0.07 | 79 | 1015.3 |
| 20260904110027 | 64 | 262 | 7.8 | 18.2 | 0.00 | 0.07 | 0.07 | 80 | 1015.2 |
| 20260904104533 | 64 | 270 | 4.3 | 17.4 | 0.00 | 0.07 | 0.07 | 84 | 1014.9 |
| 20260904103010 | 64 | 302 | 6.1 | 14.8 | 0.00 | 0.07 | 0.07 | 86 | 1015.0 |
| 20260904101518 | 64 | 294 | 3.5 | 16.5 | 0.00 | 0.07 | 0.07 | 88 | 1014.7 |
| 20260904100023 | 63 | 277 | 4.3 | 15.6 | 0.00 | 0.07 | 0.07 | 89 | 1014.5 |
| 20260904094534 | 63 | 289 | 5.2 | 13.9 | 0.00 | 0.07 | 0.07 | 91 | 1014.6 |
| 20260904093029 | 62 | 244 | 7.8 | 15.6 | 0.00 | 0.07 | 0.07 | 92 | 1014.7 |
| 20260904091512 | 62 | 248 | 5.2 | 13.9 | 0.00 | 0.07 | 0.07 | 93 | 1014.2 |
| 20260904090019 | 62 | 309 | 5.2 | 12.2 | 0.00 | 0.07 | 0.07 | 93 | 1014.0 |
| 20260904084525 | 61 | 290 | 7.8 | 14.8 | 0.00 | 0.07 | 0.07 | 93 | 1013.7 |
| 20260904083029 | 61 | 305 | 8.7 | 17.4 | 0.00 | 0.07 | 0.07 | 93 | 1014.1 |
| 20260904081530 | 62 | 292 | 8.7 | 17.4 | 0.00 | 0.07 | 0.07 | 93 | 1013.8 |
| 20260904080032 | 61 | 295 | 7.0 | 16.5 | 0.00 | 0.07 | 0.07 | 93 | 1013.6 |
| 20260904074526 | 62 | 285 | 6.1 | 13.9 | 0.00 | 0.07 | 0.07 | 93 | 1013.4 |
| 20260904073049 | 62 | 284 | 7.0 | 16.5 | 0.00 | 0.06 | 0.06 | 93 | 1013.3 |
| 20260904071541 | 62 | 296 | 6.1 | 18.2 | 0.00 | 0.06 | 0.06 | 93 | 1013.2 |
| 20260904070031 | 62 | 289 | 4.3 | 18.2 | 0.00 | 0.06 | 0.06 | 93 | 1013.0 |
| 20260904064520 | 62 | 277 | 6.1 | 16.5 | 0.01 | 0.06 | 0.06 | 93 | 1012.8 |
| 20260904063025 | 63 | 288 | 7.8 | 19.1 | 0.02 | 0.06 | 0.06 | 92 | 1012.8 |
| 20260904061532 | 63 | 278 | 8.7 | 20.9 | 0.03 | 0.05 | 0.05 | 92 | 1012.5 |
| 20260904060035 | 63 | 300 | 7.0 | 18.2 | 0.03 | 0.05 | 0.05 | 92 | 1012.3 |
| 20260904054530 | 64 | 291 | 6.1 | 17.4 | 0.03 | 0.04 | 0.04 | 91 | 1012.1 |
| 20260904053025 | 65 | 290 | 10.4 | 26.1 | 0.03 | 0.03 | 0.03 | 90 | 1011.8 |
| 20260904051534 | 67 | 242 | 7.0 | 13.9 | 0.02 | 0.02 | 0.02 | 91 | 1010.8 |
| 20260904050035 | 67 | 252 | 4.3 | 16.5 | 0.01 | 0.01 | 0.01 | 90 | 1011.0 |
| 20260904044512 | 67 | 217 | 8.7 | 20.0 | 0.00 | 0.00 | 0.00 | 90 | 1011.1 |
| 20260904043018 | 67 | 243 | 6.1 | 21.7 | 0.00 | 0.00 | 0.00 | 89 | 1011.1 |
| 20260904041526 | 67 | 237 | 6.1 | 20.0 | 0.00 | 0.00 | 0.00 | 89 | 1011.0 |
| 20260904040032 | 67 | 258 | 5.2 | 16.5 | 0.00 | 0.00 | 0.00 | 90 | 1011.1 |
| 20260904034533 | 67 | 231 | 5.2 | 14.8 | 0.00 | 0.00 | 0.00 | 89 | 1011.2 |
| 20260904033014 | 67 | 216 | 6.1 | 19.1 | 0.00 | 0.00 | 0.00 | 90 | 1011.3 |
| 20260904031521 | 67 | 238 | 9.6 | 21.7 | 0.00 | 0.00 | 0.00 | 90 | 1011.6 |
| 20260904030028 | 67 | 263 | 8.7 | 21.7 | 0.00 | 0.00 | 0.00 | 90 | 1011.5 |
| 20260904024530 | 67 | 223 | 9.6 | 22.6 | 0.00 | 0.00 | 0.00 | 90 | 1011.7 |
| 20260904023024 | 67 | 201 | 7.8 | 18.2 | 0.00 | 0.00 | 0.00 | 90 | 1012.1 |
| 20260904021532 | 67 | 225 | 10.4 | 19.1 | 0.00 | 0.00 | 0.00 | 89 | 1012.5 |
| 20260904020024 | 68 | 254 | 4.3 | 15.6 | 0.00 | 0.00 | 0.00 | 88 | 1012.7 |
| 20260904014529 | 67 | 166 | 7.0 | 16.5 | 0.00 | 0.00 | 0.00 | 87 | 1012.8 |
| 20260904013032 | 67 | 263 | 6.1 | 18.2 | 0.00 | 0.00 | 0.00 | 87 | 1012.8 |
| 20260904011521 | 67 | 218 | 7.0 | 18.2 | 0.00 | 0.00 | 0.00 | 87 | 1012.9 |
| 20260904010020 | 67 | 254 | 7.8 | 16.5 | 0.00 | 0.00 | 0.00 | 86 | 1013.0 |
| 20260904004530 | 67 | 199 | 7.0 | 15.6 | 0.00 | 0.00 | 0.00 | 86 | 1013.1 |
| 20260904003033 | 67 | 186 | 7.0 | 15.6 | 0.00 | 0.00 | 0.00 | 86 | 1013.3 |
| 20260904001531 | 67 | 254 | 7.0 | 15.6 | 0.00 | 0.00 | 0.00 | 86 | 1013.4 |
| 20260904000043 | 67 | 205 | 6.1 | 14.8 | 0.00 | 0.00 | 0.00 | 85 | 1013.6 |
| 20260903234524 | 67 | 247 | 5.2 | 13.0 | 0.00 | 0.00 | 0.00 | 85 | 1013.8 |
| 20260903233030 | 67 | 221 | 4.3 | 14.8 | 0.00 | 0.00 | 0.00 | 85 | 1014.2 |
| 20260903231531 | 67 | 232 | 4.3 | 13.0 | 0.00 | 0.00 | 0.00 | 84 | 1014.3 |
| 20260903230034 | 67 | 232 | 6.1 | 17.4 | 0.00 | 0.00 | 0.00 | 85 | 1014.5 |
| 20260903224537 | 67 | 229 | 8.7 | 17.4 | 0.00 | 0.00 | 0.00 | 85 | 1014.3 |
| 20260903223028 | 67 | 232 | 7.0 | 15.6 | 0.00 | 0.00 | 0.00 | 86 | 1014.7 |
| 20260903221531 | 67 | 257 | 4.3 | 15.6 | 0.00 | 0.00 | 0.00 | 87 | 1015.2 |
| 20260903220033 | 66 | 239 | 4.3 | 12.2 | 0.00 | 0.00 | 0.00 | 87 | 1015.5 |
| 20260903214536 | 66 | 228 | 3.5 | 11.3 | 0.00 | 0.00 | 0.00 | 87 | 1015.4 |